Time;durP1;ratioP1;P1;durP2;ratioP2;P2;SDS_P1;SDS_P2;PMS_P1;PMS_P2;Temp;Humidity;BMP_temperature;BMP_pressure;BME280_temperature;BME280_humidity;BME280_pressure;Samples;Min_cycle;Max_cycle;Signal;HPM_P1;HPM_P2
2021/10/23 00:00:49;;;;;;;10.95;1.83;;;14.20;81.70;;;;;;4957143;29;20114;-77
2021/10/23 00:03:14;;;;;;;9.55;2.40;;;14.20;82.20;;;;;;4955925;28;20027;-78
2021/10/23 00:05:40;;;;;;;9.30;2.13;;;14.20;81.70;;;;;;4942805;28;20494;-77
2021/10/23 00:08:05;;;;;;;7.85;2.00;;;14.20;81.70;;;;;;4936350;29;20024;-77
2021/10/23 00:10:31;;;;;;;8.02;1.77;;;14.20;81.60;;;;;;4936594;29;20144;-78
2021/10/23 00:12:57;;;;;;;7.65;2.47;;;14.20;81.60;;;;;;4937857;29;20064;-77
2021/10/23 00:15:22;;;;;;;7.70;2.10;;;14.10;81.50;;;;;;4935872;29;20490;-78
2021/10/23 00:17:48;;;;;;;7.72;2.08;;;14.20;81.60;;;;;;4936150;29;20028;-77
2021/10/23 00:20:14;;;;;;;9.73;2.33;;;14.10;81.50;;;;;;4936322;29;20038;-77
2021/10/23 00:22:39;;;;;;;7.65;1.83;;;14.10;81.50;;;;;;4937475;29;20037;-78
2021/10/23 00:25:06;;;;;;;7.07;1.70;;;14.10;81.50;;;;;;4936358;29;20111;-77
2021/10/23 00:27:31;;;;;;;9.60;1.88;;;14.20;81.50;;;;;;4936082;29;20374;-78
2021/10/23 00:29:59;;;;;;;8.20;2.35;;;14.20;81.40;;;;;;4937492;29;20107;-77
2021/10/23 00:32:25;;;;;;;8.02;2.08;;;14.10;81.40;;;;;;4937258;29;20389;-78
2021/10/23 00:34:51;;;;;;;5.63;1.63;;;14.20;81.40;;;;;;4936155;29;20544;-77
2021/10/23 00:37:16;;;;;;;9.13;2.05;;;14.20;81.40;;;;;;4936269;29;20131;-77
2021/10/23 00:39:42;;;;;;;8.30;2.00;;;14.10;81.30;;;;;;4936092;29;20553;-78
2021/10/23 00:42:07;;;;;;;9.43;2.08;;;14.20;81.30;;;;;;4937404;29;20032;-77
2021/10/23 00:44:35;;;;;;;8.95;2.10;;;14.10;81.30;;;;;;4936919;29;20020;-77
2021/10/23 00:47:06;;;;;;;7.15;1.98;;;14.10;81.20;;;;;;4936047;29;20099;-75
2021/10/23 00:49:32;;;;;;;6.82;1.95;;;14.10;81.20;;;;;;4935829;29;20032;-77
2021/10/23 00:52:00;;;;;;;6.70;2.03;;;14.10;81.20;;;;;;4935907;29;20539;-79
2021/10/23 00:54:26;;;;;;;5.95;1.55;;;14.20;81.20;;;;;;4935596;29;20090;-76
2021/10/23 00:56:53;;;;;;;7.63;1.77;;;14.10;81.20;;;;;;4935676;29;20027;-78
2021/10/23 00:59:20;;;;;;;4.72;1.42;;;14.20;81.20;;;;;;4935446;29;20032;-77
2021/10/23 01:01:46;;;;;;;7.10;1.83;;;14.10;81.10;;;;;;4933930;29;20541;-77
2021/10/23 01:04:12;;;;;;;7.15;2.03;;;14.20;81.10;;;;;;4936746;29;20034;-77
2021/10/23 01:06:39;;;;;;;6.38;2.00;;;14.10;81.00;;;;;;4935634;29;20024;-76
2021/10/23 01:09:05;;;;;;;8.15;2.00;;;14.20;81.00;;;;;;4936202;29;20031;-77
2021/10/23 01:11:32;;;;;;;8.25;2.50;;;14.20;81.00;;;;;;4935340;29;20074;-76
2021/10/23 01:13:57;;;;;;;8.75;1.83;;;14.10;81.00;;;;;;4936608;29;20031;-77
2021/10/23 01:16:23;;;;;;;6.75;1.98;;;14.10;80.90;;;;;;4936344;29;20031;-77
2021/10/23 01:18:48;;;;;;;6.82;1.85;;;14.10;80.90;;;;;;4935352;29;20051;-77
2021/10/23 01:21:19;;;;;;;7.35;1.67;;;14.20;81.10;;;;;;4934937;29;20123;-76
2021/10/23 01:23:45;;;;;;;6.88;1.92;;;14.10;81.00;;;;;;4934995;29;20023;-76
2021/10/23 01:26:10;;;;;;;7.22;1.98;;;14.10;81.00;;;;;;4934134;29;20079;-76
2021/10/23 01:28:36;;;;;;;7.00;2.03;;;14.10;81.00;;;;;;4936101;29;20102;-78
2021/10/23 01:31:01;;;;;;;9.95;2.28;;;14.10;81.00;;;;;;4935009;29;20057;-77
2021/10/23 01:33:27;;;;;;;6.53;1.95;;;14.10;81.00;;;;;;4936110;29;20032;-76
2021/10/23 01:35:52;;;;;;;6.43;1.92;;;14.10;81.00;;;;;;4935007;29;20019;-77
2021/10/23 01:38:18;;;;;;;19.25;2.78;;;14.10;81.00;;;;;;4934507;29;20075;-77
2021/10/23 01:40:44;;;;;;;13.27;2.15;;;14.10;81.00;;;;;;4934923;29;20035;-77
2021/10/23 01:43:09;;;;;;;9.75;2.30;;;14.10;80.90;;;;;;4934649;29;20036;-77
2021/10/23 01:45:35;;;;;;;10.52;2.42;;;14.10;80.90;;;;;;4934629;29;20024;-77
2021/10/23 01:48:01;;;;;;;8.75;2.05;;;14.20;81.00;;;;;;4935815;29;20034;-77
2021/10/23 01:50:28;;;;;;;8.27;2.20;;;14.10;81.00;;;;;;4934785;29;20030;-76
2021/10/23 01:52:55;;;;;;;8.13;1.98;;;14.10;80.90;;;;;;4934427;29;20396;-76
2021/10/23 01:55:21;;;;;;;7.40;1.70;;;14.10;81.00;;;;;;4934462;29;20032;-77
2021/10/23 01:57:47;;;;;;;9.52;2.30;;;14.10;81.00;;;;;;4935653;29;20106;-76
2021/10/23 02:00:16;;;;;;;7.38;1.63;;;14.10;81.00;;;;;;4935649;29;20024;-76
2021/10/23 02:02:42;;;;;;;8.38;2.00;;;14.10;81.00;;;;;;4934496;29;20393;-77
2021/10/23 02:05:09;;;;;;;9.70;2.10;;;14.10;81.00;;;;;;4934449;29;20119;-77
2021/10/23 02:07:35;;;;;;;8.25;2.13;;;14.10;81.20;;;;;;4935254;29;20024;-78
2021/10/23 02:10:00;;;;;;;7.93;1.75;;;14.20;81.20;;;;;;4935731;29;20031;-77
2021/10/23 02:12:26;;;;;;;10.63;1.85;;;14.20;81.20;;;;;;4934428;29;20573;-77
2021/10/23 02:14:52;;;;;;;8.68;1.70;;;14.20;81.20;;;;;;4934136;29;20114;-76
2021/10/23 02:17:17;;;;;;;11.15;2.20;;;14.20;81.10;;;;;;4935180;29;20489;-76
2021/10/23 02:19:43;;;;;;;8.00;2.05;;;14.20;81.00;;;;;;4934156;29;20447;-76
2021/10/23 02:22:08;;;;;;;9.05;2.15;;;14.20;81.00;;;;;;4934076;29;20478;-76
2021/10/23 02:24:34;;;;;;;10.88;2.33;;;14.20;81.00;;;;;;4934094;29;20034;-77
2021/10/23 02:27:00;;;;;;;11.98;2.30;;;14.20;81.00;;;;;;4930742;29;20039;-77
2021/10/23 02:29:25;;;;;;;10.02;2.10;;;14.20;81.00;;;;;;4933779;29;20024;-77
2021/10/23 02:31:51;;;;;;;11.20;2.13;;;14.20;80.90;;;;;;4934054;29;20052;-76
2021/10/23 02:34:17;;;;;;;9.85;2.15;;;14.20;81.00;;;;;;4934081;29;20020;-76
2021/10/23 02:36:43;;;;;;;9.43;2.00;;;14.20;80.90;;;;;;4933995;29;20027;-76
2021/10/23 02:39:08;;;;;;;8.02;2.05;;;14.20;80.90;;;;;;4933644;29;20070;-76
2021/10/23 02:41:34;;;;;;;8.15;1.80;;;14.20;81.00;;;;;;4933960;29;20027;-76
2021/10/23 02:43:59;;;;;;;7.80;1.60;;;14.20;81.00;;;;;;4934791;29;20040;-76
2021/10/23 02:46:25;;;;;;;6.85;1.77;;;14.20;80.90;;;;;;4933690;29;20576;-77
2021/10/23 02:48:51;;;;;;;9.20;1.85;;;14.20;80.80;;;;;;4933738;29;20091;-77
2021/10/23 02:51:16;;;;;;;8.98;1.95;;;14.20;80.90;;;;;;4933905;29;20035;-77
2021/10/23 02:53:42;;;;;;;7.70;2.00;;;14.20;81.00;;;;;;4933789;29;20032;-76
2021/10/23 02:56:07;;;;;;;7.47;1.90;;;14.10;81.20;;;;;;4933784;29;20047;-76
2021/10/23 02:58:33;;;;;;;6.95;1.95;;;14.10;81.20;;;;;;4934896;29;20023;-76
2021/10/23 03:00:59;;;;;;;8.07;2.10;;;14.10;81.30;;;;;;4933500;29;20031;-77
2021/10/23 03:03:24;;;;;;;7.20;1.75;;;14.20;81.40;;;;;;4933831;29;20059;-77
2021/10/23 03:05:50;;;;;;;9.15;2.10;;;14.10;81.50;;;;;;4933811;29;20110;-76
2021/10/23 03:08:15;;;;;;;7.75;1.92;;;14.10;81.50;;;;;;4933244;29;20023;-77
2021/10/23 03:10:42;;;;;;;9.32;2.20;;;14.10;81.50;;;;;;4935041;29;20075;-76
2021/10/23 03:13:07;;;;;;;6.40;1.73;;;14.10;81.50;;;;;;4935079;29;20088;-76
2021/10/23 03:15:33;;;;;;;6.53;1.90;;;14.10;81.60;;;;;;4933516;29;20091;-77
2021/10/23 03:17:59;;;;;;;8.35;2.00;;;14.00;81.60;;;;;;4934770;29;20036;-77
2021/10/23 03:20:25;;;;;;;6.30;1.60;;;14.10;81.70;;;;;;4934976;29;20397;-77
2021/10/23 03:22:50;;;;;;;6.25;1.80;;;14.10;81.70;;;;;;4933437;29;20173;-76
2021/10/23 03:25:16;;;;;;;7.15;1.83;;;14.10;81.80;;;;;;4933656;29;20031;-76
2021/10/23 03:27:41;;;;;;;7.50;2.10;;;14.10;81.90;;;;;;4934548;29;20023;-77
2021/10/23 03:30:07;;;;;;;7.20;2.00;;;14.10;81.90;;;;;;4933441;29;20082;-76
2021/10/23 03:32:33;;;;;;;8.50;1.90;;;14.10;81.80;;;;;;4934738;29;20083;-76
2021/10/23 03:35:02;;;;;;;7.93;2.00;;;14.10;81.90;;;;;;4934683;29;20027;-77
2021/10/23 03:37:32;;;;;;;8.23;2.03;;;14.10;81.90;;;;;;4933158;29;20035;-76
2021/10/23 03:39:59;;;;;;;9.88;2.00;;;14.10;81.90;;;;;;4933447;29;20027;-77
2021/10/23 03:42:24;;;;;;;9.82;2.10;;;14.00;81.80;;;;;;4934246;29;20066;-77
2021/10/23 03:44:50;;;;;;;7.60;1.85;;;14.00;81.80;;;;;;4934057;29;20071;-78
2021/10/23 03:47:16;;;;;;;9.70;2.10;;;14.00;81.80;;;;;;4934471;29;20027;-78
2021/10/23 03:49:43;;;;;;;9.75;2.35;;;14.10;81.90;;;;;;4934690;29;20024;-78
2021/10/23 03:52:09;;;;;;;6.70;1.77;;;14.10;81.90;;;;;;4936869;29;20028;-76
2021/10/23 03:54:34;;;;;;;8.20;1.70;;;14.00;81.90;;;;;;4936679;29;20034;-78
2021/10/23 03:57:00;;;;;;;8.95;2.10;;;14.10;81.90;;;;;;4936600;29;20405;-75
2021/10/23 03:59:26;;;;;;;8.52;1.88;;;14.10;81.80;;;;;;4937536;29;20036;-78
2021/10/23 04:01:51;;;;;;;8.93;2.10;;;14.10;81.80;;;;;;4937826;29;20602;-76
2021/10/23 04:04:17;;;;;;;5.15;1.50;;;14.10;81.80;;;;;;4936589;29;20032;-77
2021/10/23 04:06:42;;;;;;;6.00;1.58;;;14.00;81.70;;;;;;4937681;29;20147;-78
2021/10/23 04:09:08;;;;;;;11.75;1.98;;;14.00;81.70;;;;;;4937586;29;20020;-78
2021/10/23 04:11:34;;;;;;;8.35;1.75;;;14.10;81.70;;;;;;4937731;29;20111;-78
2021/10/23 04:13:59;;;;;;;8.65;1.88;;;14.00;81.70;;;;;;4937602;29;20038;-76
2021/10/23 04:16:25;;;;;;;7.97;1.80;;;14.10;81.70;;;;;;4936254;29;20028;-76
2021/10/23 04:18:50;;;;;;;7.93;1.70;;;14.00;81.60;;;;;;4937156;29;20038;-78
2021/10/23 04:21:16;;;;;;;7.13;1.98;;;14.10;81.70;;;;;;4935947;29;20100;-78
2021/10/23 04:23:42;;;;;;;6.20;1.67;;;14.00;81.50;;;;;;4936403;29;20051;-77
2021/10/23 04:26:08;;;;;;;8.50;2.17;;;14.10;81.50;;;;;;4934172;29;20047;-77
2021/10/23 04:28:33;;;;;;;5.72;1.65;;;14.10;81.50;;;;;;4935603;29;20024;-77
2021/10/23 04:30:59;;;;;;;8.52;2.08;;;14.00;81.40;;;;;;4936107;29;20474;-78
2021/10/23 04:33:25;;;;;;;6.90;2.35;;;14.00;81.40;;;;;;4937353;29;20074;-77
2021/10/23 04:35:50;;;;;;;8.63;1.90;;;14.00;81.40;;;;;;4934644;29;20032;-77
2021/10/23 04:38:17;;;;;;;6.30;1.98;;;14.10;81.50;;;;;;4935812;29;20027;-77
2021/10/23 04:40:42;;;;;;;7.15;2.17;;;14.10;81.50;;;;;;4935846;29;20493;-77
2021/10/23 04:43:08;;;;;;;7.07;2.33;;;14.10;81.50;;;;;;4935728;29;20116;-78
2021/10/23 04:45:33;;;;;;;8.35;2.38;;;14.00;81.50;;;;;;4937221;29;20082;-77
2021/10/23 04:48:00;;;;;;;8.70;2.45;;;14.10;81.60;;;;;;4935786;29;20031;-77
2021/10/23 04:50:26;;;;;;;8.25;2.10;;;14.10;81.50;;;;;;4936823;29;20027;-77
2021/10/23 04:52:52;;;;;;;8.27;2.20;;;14.10;81.60;;;;;;4935935;29;20063;-76
2021/10/23 04:55:17;;;;;;;6.72;2.10;;;14.00;81.50;;;;;;4935636;29;20039;-75
2021/10/23 04:57:43;;;;;;;6.55;1.90;;;14.10;81.50;;;;;;4936830;29;20127;-77
2021/10/23 05:00:08;;;;;;;6.63;1.88;;;14.10;81.60;;;;;;4934229;28;20031;-77
2021/10/23 05:02:34;;;;;;;6.55;2.10;;;14.00;81.50;;;;;;4933101;29;20031;-76
2021/10/23 05:05:00;;;;;;;6.60;1.85;;;14.10;81.60;;;;;;4930581;29;20151;-76
2021/10/23 05:07:25;;;;;;;7.43;2.10;;;14.10;81.50;;;;;;4930703;29;20032;-78
2021/10/23 05:09:51;;;;;;;8.07;2.22;;;14.00;81.60;;;;;;4931221;29;20088;-77
2021/10/23 05:12:16;;;;;;;7.22;2.00;;;14.10;81.70;;;;;;4932048;29;20047;-77
2021/10/23 05:14:42;;;;;;;8.25;2.45;;;14.10;81.60;;;;;;4931074;29;20063;-76
2021/10/23 05:17:07;;;;;;;5.85;1.80;;;14.10;81.50;;;;;;4930768;29;20031;-76
2021/10/23 05:19:33;;;;;;;8.38;2.28;;;14.10;81.40;;;;;;4930576;29;20040;-77
2021/10/23 05:21:58;;;;;;;7.03;2.08;;;14.10;81.40;;;;;;4932018;29;20103;-77
2021/10/23 05:24:25;;;;;;;8.68;2.40;;;14.10;81.30;;;;;;4930810;29;20031;-77
2021/10/23 05:26:51;;;;;;;7.40;2.40;;;14.10;81.30;;;;;;4930759;29;20032;-77
2021/10/23 05:29:16;;;;;;;8.88;2.50;;;14.10;81.40;;;;;;4930016;29;20138;-77
2021/10/23 05:31:42;;;;;;;6.18;2.47;;;14.10;81.30;;;;;;4930214;29;20038;-76
2021/10/23 05:34:07;;;;;;;7.03;2.42;;;14.20;81.30;;;;;;4930188;29;20040;-76
2021/10/23 05:36:33;;;;;;;7.00;2.15;;;14.10;81.20;;;;;;4930348;29;20477;-77
2021/10/23 05:38:58;;;;;;;5.60;2.22;;;14.20;81.20;;;;;;4931270;29;20139;-78
2021/10/23 05:41:24;;;;;;;7.28;2.63;;;14.10;80.90;;;;;;4930023;29;20027;-77
2021/10/23 05:43:50;;;;;;;8.07;2.83;;;14.10;81.00;;;;;;4932336;29;20482;-80
2021/10/23 05:46:16;;;;;;;9.40;2.58;;;14.10;81.10;;;;;;4931411;29;20035;-77
2021/10/23 05:48:42;;;;;;;7.35;2.50;;;14.00;81.10;;;;;;4929740;29;20030;-76
2021/10/23 05:51:07;;;;;;;8.00;2.53;;;14.00;81.30;;;;;;4929826;29;20023;-76
2021/10/23 05:53:33;;;;;;;8.00;2.60;;;14.00;81.30;;;;;;4930108;29;20035;-77
2021/10/23 05:55:59;;;;;;;10.15;2.40;;;14.00;81.50;;;;;;4925189;29;20039;-76
2021/10/23 05:58:28;;;;;;;9.80;2.83;;;14.00;81.50;;;;;;4911636;29;20079;-76
2021/10/23 06:00:57;;;;;;;9.75;2.80;;;14.00;81.50;;;;;;4921542;29;20561;-75
2021/10/23 06:03:25;;;;;;;8.27;2.80;;;14.00;81.50;;;;;;4930674;29;20028;-74
2021/10/23 06:05:51;;;;;;;12.60;2.88;;;14.00;81.60;;;;;;4930352;29;20445;-76
2021/10/23 06:08:16;;;;;;;10.63;2.85;;;14.00;81.50;;;;;;4928476;29;20031;-75
2021/10/23 06:10:43;;;;;;;9.55;3.17;;;14.00;81.50;;;;;;4929805;29;20028;-74
2021/10/23 06:13:10;;;;;;;8.70;3.15;;;14.00;81.50;;;;;;4930615;29;20027;-75
2021/10/23 06:15:36;;;;;;;7.97;3.13;;;14.00;82.10;;;;;;4933638;29;20413;-76
2021/10/23 06:18:03;;;;;;;8.20;3.00;;;14.00;81.50;;;;;;4933913;29;20038;-76
2021/10/23 06:20:28;;;;;;;9.65;3.08;;;14.00;81.60;;;;;;4935244;29;20529;-76
2021/10/23 06:22:54;;;;;;;8.27;3.03;;;14.00;81.50;;;;;;4935212;29;20079;-76
2021/10/23 06:25:21;;;;;;;10.02;3.38;;;14.00;81.50;;;;;;4935271;29;20031;-76
2021/10/23 06:27:47;;;;;;;9.35;3.55;;;14.00;81.40;;;;;;4933695;29;20495;-76
2021/10/23 06:30:13;;;;;;;7.03;3.17;;;14.00;81.40;;;;;;4935238;29;20402;-76
2021/10/23 06:32:49;;;;;;;7.75;3.38;;;14.00;81.40;;;;;;4934245;29;20537;-76
2021/10/23 06:35:15;;;;;;;8.38;3.67;;;14.00;81.40;;;;;;4933766;29;20086;-75
2021/10/23 06:37:41;;;;;;;8.82;4.20;;;14.00;81.30;;;;;;4935119;29;20077;-75
2021/10/23 06:40:08;;;;;;;10.15;4.00;;;14.00;81.30;;;;;;4934040;29;20051;-76
2021/10/23 06:42:33;;;;;;;8.18;3.83;;;14.10;81.30;;;;;;4933562;29;20020;-76
2021/10/23 06:44:59;;;;;;;10.02;4.35;;;14.10;81.20;;;;;;4934017;29;20039;-75
2021/10/23 06:47:25;;;;;;;9.98;3.85;;;14.10;81.20;;;;;;4934981;29;20016;-76
2021/10/23 06:49:51;;;;;;;8.32;3.80;;;14.10;81.00;;;;;;4933814;29;20095;-76
2021/10/23 06:52:17;;;;;;;9.13;3.92;;;14.10;81.00;;;;;;4933960;29;20060;-76
2021/10/23 06:54:43;;;;;;;8.90;4.03;;;14.10;81.20;;;;;;4934614;29;20063;-76
2021/10/23 06:57:08;;;;;;;9.23;4.30;;;14.00;81.20;;;;;;4934521;29;20031;-76
2021/10/23 06:59:34;;;;;;;8.82;4.07;;;14.00;81.30;;;;;;4934900;29;20034;-76
2021/10/23 07:01:59;;;;;;;10.55;4.75;;;14.00;81.30;;;;;;4934861;29;20028;-75
2021/10/23 07:04:25;;;;;;;7.43;3.95;;;14.00;81.30;;;;;;4933474;29;20031;-76
2021/10/23 07:06:50;;;;;;;8.80;4.60;;;14.00;81.30;;;;;;4934997;29;20102;-76
2021/10/23 07:09:17;;;;;;;9.23;4.38;;;14.00;81.30;;;;;;4933670;29;20028;-76
2021/10/23 07:11:43;;;;;;;8.95;4.50;;;14.00;81.30;;;;;;4933720;29;20032;-76
2021/10/23 07:14:08;;;;;;;9.57;4.78;;;14.00;81.30;;;;;;4933655;29;20032;-76
2021/10/23 07:16:34;;;;;;;9.57;4.82;;;14.00;81.30;;;;;;4934292;29;20110;-76
2021/10/23 07:18:59;;;;;;;9.02;4.72;;;14.00;81.30;;;;;;4933183;29;20047;-75
2021/10/23 07:21:25;;;;;;;8.40;4.18;;;14.00;81.30;;;;;;4933476;29;20024;-76
2021/10/23 07:23:53;;;;;;;8.60;4.90;;;14.00;81.30;;;;;;4934342;29;20389;-76
2021/10/23 07:26:19;;;;;;;8.05;4.28;;;14.00;81.30;;;;;;4938271;29;20028;-77
2021/10/23 07:28:45;;;;;;;7.85;5.15;;;14.00;81.40;;;;;;4938267;29;20023;-76
2021/10/23 07:31:11;;;;;;;8.43;4.30;;;14.00;81.40;;;;;;4938224;29;20042;-76
2021/10/23 07:33:37;;;;;;;9.35;4.80;;;14.00;81.40;;;;;;4937042;29;20452;-77
2021/10/23 07:36:02;;;;;;;8.85;4.80;;;14.00;81.40;;;;;;4937071;29;20028;-76
2021/10/23 07:38:28;;;;;;;9.57;5.40;;;14.00;81.40;;;;;;4938019;29;20024;-76
2021/10/23 07:40:54;;;;;;;8.43;5.20;;;14.00;81.50;;;;;;4938023;29;20090;-76
2021/10/23 07:43:20;;;;;;;10.15;5.20;;;14.00;81.50;;;;;;4936963;29;20547;-76
2021/10/23 07:45:48;;;;;;;8.48;5.00;;;14.00;81.50;;;;;;4936883;29;20481;-75
2021/10/23 07:48:18;;;;;;;7.72;4.53;;;14.00;81.50;;;;;;4937740;29;20030;-76
2021/10/23 07:50:47;;;;;;;9.90;4.70;;;14.00;81.50;;;;;;4936863;29;20024;-76
2021/10/23 07:53:14;;;;;;;9.93;5.13;;;14.00;81.50;;;;;;4936849;29;20034;-76
2021/10/23 07:55:39;;;;;;;8.48;5.15;;;14.00;81.60;;;;;;4936456;29;20473;-77
2021/10/23 07:58:05;;;;;;;7.70;4.60;;;14.10;82.20;;;;;;4937266;29;20080;-77
2021/10/23 08:00:30;;;;;;;9.55;5.00;;;14.00;81.60;;;;;;4937894;29;20035;-77
2021/10/23 08:03:01;;;;;;;8.70;4.50;;;14.10;81.80;;;;;;4936333;29;20024;-76
2021/10/23 08:05:29;;;;;;;8.15;4.43;;;14.10;81.70;;;;;;4936683;29;20055;-76
2021/10/23 08:07:55;;;;;;;8.73;4.93;;;14.10;81.70;;;;;;4937538;29;20490;-76
2021/10/23 08:10:22;;;;;;;8.52;5.22;;;14.10;81.60;;;;;;4937590;29;20066;-76
2021/10/23 08:12:48;;;;;;;8.38;5.03;;;14.10;81.60;;;;;;4937820;29;20059;-75
2021/10/23 08:15:15;;;;;;;9.98;5.25;;;14.10;81.50;;;;;;4936039;29;20462;-77
2021/10/23 08:17:42;;;;;;;9.77;4.82;;;14.10;81.40;;;;;;4935796;29;20054;-77
2021/10/23 08:20:08;;;;;;;9.88;5.35;;;14.10;81.50;;;;;;4936183;29;20035;-76
2021/10/23 08:22:35;;;;;;;8.60;5.00;;;14.10;81.30;;;;;;4937300;29;20051;-76
2021/10/23 08:25:03;;;;;;;8.88;5.18;;;14.20;81.30;;;;;;4935955;29;20031;-76
2021/10/23 08:27:30;;;;;;;9.57;5.45;;;14.10;81.30;;;;;;4937099;29;20060;-76
2021/10/23 08:29:56;;;;;;;9.00;4.85;;;14.10;81.20;;;;;;4936346;29;20032;-77
2021/10/23 08:32:21;;;;;;;9.75;5.30;;;14.20;81.30;;;;;;4935960;29;20034;-76
2021/10/23 08:34:47;;;;;;;11.25;5.35;;;14.20;81.30;;;;;;4937032;29;20038;-76
2021/10/23 08:37:12;;;;;;;9.43;4.95;;;14.10;81.20;;;;;;4935594;29;20031;-76
2021/10/23 08:39:39;;;;;;;10.05;5.65;;;14.10;81.20;;;;;;4936793;29;20027;-76
2021/10/23 08:42:05;;;;;;;8.98;5.30;;;14.10;81.20;;;;;;4935963;29;20028;-77
2021/10/23 08:44:32;;;;;;;9.48;5.00;;;14.10;81.40;;;;;;4935916;29;20028;-76
2021/10/23 08:46:58;;;;;;;8.95;5.40;;;14.10;81.50;;;;;;4935766;29;20544;-76
2021/10/23 08:49:24;;;;;;;10.45;5.50;;;14.10;81.60;;;;;;4935899;29;20059;-75
2021/10/23 08:51:51;;;;;;;11.63;5.97;;;14.10;81.50;;;;;;4937293;29;20027;-75
2021/10/23 08:54:17;;;;;;;11.82;6.43;;;14.10;80.80;;;;;;4935252;29;20027;-77
2021/10/23 08:56:42;;;;;;;11.55;5.78;;;14.00;80.50;;;;;;4935969;29;20127;-76
2021/10/23 08:59:08;;;;;;;8.98;5.53;;;14.00;80.60;;;;;;4936617;29;20107;-77
2021/10/23 09:01:34;;;;;;;9.00;5.20;;;14.10;80.80;;;;;;4936864;29;20437;-77
2021/10/23 09:04:00;;;;;;;13.05;5.57;;;14.10;80.90;;;;;;4937016;29;20042;-76
2021/10/23 09:06:30;;;;;;;10.57;5.82;;;14.10;80.80;;;;;;4935705;29;20038;-77
2021/10/23 09:09:04;;;;;;;12.57;4.90;;;14.20;80.90;;;;;;4936194;29;20035;-77
2021/10/23 09:11:34;;;;;;;9.13;5.20;;;14.20;81.00;;;;;;4935841;29;20032;-77
2021/10/23 09:14:31;;;;;;;10.98;5.65;;;14.20;81.20;;;;;;4936845;29;20031;-76
2021/10/23 09:17:14;;;;;;;10.23;5.40;;;14.10;81.20;;;;;;4935620;29;20035;-76
2021/10/23 09:19:45;;;;;;;9.18;5.40;;;14.10;81.20;;;;;;4936552;29;20074;-77
2021/10/23 09:22:23;;;;;;;10.45;5.68;;;14.20;81.30;;;;;;4936508;29;20039;-76
2021/10/23 09:24:49;;;;;;;9.35;5.70;;;14.20;81.20;;;;;;4934906;29;20028;-77
2021/10/23 09:27:17;;;;;;;11.43;5.68;;;14.20;81.30;;;;;;4934968;29;20034;-77
2021/10/23 09:29:43;;;;;;;8.57;5.32;;;14.20;81.40;;;;;;4935255;29;20421;-78
2021/10/23 09:32:10;;;;;;;9.20;4.95;;;14.20;81.40;;;;;;4936115;29;20107;-78
2021/10/23 09:34:36;;;;;;;9.32;5.28;;;14.20;81.40;;;;;;4935119;29;20103;-77
2021/10/23 09:37:03;;;;;;;10.27;5.35;;;14.20;81.40;;;;;;4934915;29;20114;-76
2021/10/23 09:39:32;;;;;;;9.88;6.10;;;14.20;81.40;;;;;;4936143;29;20582;-76
2021/10/23 09:42:09;;;;;;;9.38;5.22;;;14.20;81.50;;;;;;4931060;29;20039;-77
2021/10/23 09:44:38;;;;;;;10.35;5.43;;;14.20;81.40;;;;;;4931874;29;20020;-75
2021/10/23 09:47:04;;;;;;;9.38;5.03;;;14.20;81.40;;;;;;4929599;29;20032;-76
2021/10/23 09:49:30;;;;;;;9.75;5.22;;;14.20;81.50;;;;;;4930717;29;20165;-75
2021/10/23 09:52:03;;;;;;;7.75;4.88;;;14.20;81.50;;;;;;4930003;29;20031;-76
2021/10/23 09:54:29;;;;;;;8.70;5.10;;;14.20;81.30;;;;;;4931324;29;20390;-75
2021/10/23 09:56:55;;;;;;;17.10;5.72;;;14.30;81.30;;;;;;4930634;29;20023;-76
2021/10/23 09:59:29;;;;;;;38.10;7.72;;;14.20;81.30;;;;;;4930807;29;20032;-76
2021/10/23 10:01:57;;;;;;;38.75;7.90;;;14.30;81.50;;;;;;4929574;29;20035;-76
2021/10/23 10:04:23;;;;;;;69.07;9.90;;;14.30;81.50;;;;;;4929996;29;20030;-76
2021/10/23 10:06:53;;;;;;;59.97;10.15;;;14.20;81.10;;;;;;4929602;29;20036;-77
2021/10/23 10:09:23;;;;;;;99.15;13.50;;;14.20;80.80;;;;;;4930875;29;20024;-76
2021/10/23 10:11:51;;;;;;;88.85;12.68;;;14.20;80.20;;;;;;4930032;29;20027;-78
2021/10/23 10:14:19;;;;;;;150.55;16.67;;;14.20;79.60;;;;;;4932044;29;20040;-76
2021/10/23 10:16:50;;;;;;;144.05;16.70;;;14.20;79.50;;;;;;4931068;29;20081;-75
2021/10/23 10:19:19;;;;;;;129.55;15.23;;;14.20;78.60;;;;;;4933073;29;20043;-77
2021/10/23 10:21:47;;;;;;;118.53;15.15;;;14.20;78.50;;;;;;4929969;29;20036;-76
2021/10/23 10:24:19;;;;;;;119.68;15.90;;;14.20;78.60;;;;;;4929908;29;20142;-75
2021/10/23 10:27:03;;;;;;;156.88;15.98;;;14.20;78.70;;;;;;4929885;29;20059;-76
2021/10/23 10:29:42;;;;;;;121.82;14.68;;;14.20;78.70;;;;;;4929240;29;20031;-75
2021/10/23 10:32:20;;;;;;;140.63;16.25;;;14.20;78.90;;;;;;4930832;29;20020;-75
2021/10/23 10:40:15;;;;;;;198.32;19.58;;;14.20;78.90;;;;;;4930378;29;20032;-76
2021/10/23 10:42:51;;;;;;;109.93;14.70;;;14.30;78.60;;;;;;4929640;29;20115;-75
2021/10/23 10:45:23;;;;;;;167.98;18.45;;;14.30;78.80;;;;;;4929325;29;20034;-76
2021/10/23 10:48:06;;;;;;;;;;;14.30;78.70;;;;;;4931198;29;20052;-75
2021/10/23 10:50:56;;;;;;;1661.82;159.98;;;14.20;77.50;;;;;;4930515;29;19923;-75
2021/10/23 10:53:23;;;;;;;1958.25;193.65;;;14.30;77.50;;;;;;4929377;29;20030;-75
2021/10/23 10:55:52;;;;;;;1991.65;208.95;;;14.30;78.10;;;;;;4930319;29;20042;-75
2021/10/23 10:58:18;;;;;;;1617.28;149.73;;;14.30;77.20;;;;;;4929302;29;20032;-77
2021/10/23 11:00:51;;;;;;;1999.90;287.10;;;14.30;75.80;;;;;;4933199;29;20111;-75
2021/10/23 11:03:39;;;;;;;1606.57;127.22;;;14.20;74.40;;;;;;4932537;29;20034;-76
2021/10/23 11:06:35;;;;;;;1518.78;123.22;;;14.10;73.20;;;;;;4932448;29;20027;-76
2021/10/23 11:09:16;;;;;;;1155.47;95.55;;;14.10;72.90;;;;;;4930932;29;20518;-75
2021/10/23 11:11:44;;;;;;;739.17;60.17;;;14.20;73.10;;;;;;4932857;29;20083;-75
2021/10/23 11:14:36;;;;;;;681.08;55.97;;;14.20;73.20;;;;;;4931557;29;20032;-75
2021/10/23 11:17:02;;;;;;;806.22;65.15;;;14.20;72.90;;;;;;4932067;29;20122;-77
2021/10/23 11:19:42;;;;;;;825.10;67.75;;;14.20;73.00;;;;;;4936940;29;20544;-80
2021/10/23 11:22:14;;;;;;;646.35;49.17;;;14.20;72.70;;;;;;4937533;29;20485;-78
2021/10/23 11:24:42;;;;;;;1140.40;89.43;;;14.20;72.50;;;;;;4938808;29;20474;-76
2021/10/23 11:27:21;;;;;;;1673.72;133.40;;;14.20;73.20;;;;;;4937587;29;20142;-77
2021/10/23 11:29:47;;;;;;;1999.90;230.50;;;14.30;73.10;;;;;;4938871;29;20103;-77
2021/10/23 11:32:13;;;;;;;1999.90;292.05;;;14.20;72.70;;;;;;4938763;29;20155;-77
2021/10/23 11:34:40;;;;;;;1999.90;214.77;;;14.30;72.90;;;;;;4937153;29;20023;-76
2021/10/23 11:37:06;;;;;;;1999.90;182.00;;;14.30;72.00;;;;;;4936878;29;20024;-76
2021/10/23 11:39:36;;;;;;;1695.40;142.43;;;14.30;72.10;;;;;;4938360;29;20026;-77
2021/10/23 11:42:35;;;;;;;1474.95;127.50;;;14.40;72.20;;;;;;4936988;29;20083;-77
2021/10/23 11:45:15;;;;;;;1144.90;99.87;;;14.50;72.20;;;;;;4926009;29;20040;-76
2021/10/23 11:47:41;;;;;;;964.42;83.90;;;14.60;72.10;;;;;;4936267;29;20095;-77
2021/10/23 11:50:16;;;;;;;862.72;73.32;;;14.60;72.00;;;;;;4936077;29;20114;-77
2021/10/23 11:53:05;;;;;;;785.85;66.93;;;14.70;72.00;;;;;;4937950;29;20095;-77
2021/10/23 11:55:33;;;;;;;609.28;50.53;;;14.70;72.30;;;;;;4936923;29;20516;-77
2021/10/23 11:58:01;;;;;;;538.63;47.08;;;14.70;72.00;;;;;;4936391;29;20083;-76
2021/10/23 12:00:30;;;;;;;520.28;44.38;;;14.80;72.10;;;;;;4936168;29;20028;-76
2021/10/23 12:03:03;;;;;;;476.25;42.65;;;14.80;71.90;;;;;;4936589;29;20020;-77
2021/10/23 12:05:49;;;;;;;311.45;26.30;;;14.80;71.80;;;;;;4937871;29;20019;-77
2021/10/23 12:08:22;;;;;;;229.90;18.73;;;14.70;71.20;;;;;;4936511;29;20030;-77
2021/10/23 12:11:29;;;;;;;223.20;20.88;;;14.60;71.30;;;;;;4937064;29;20621;-76
2021/10/23 12:14:05;;;;;;;311.45;31.17;;;14.60;70.40;;;;;;4935750;29;20051;-77
2021/10/23 12:16:49;;;;;;;333.15;37.03;;;14.50;70.90;;;;;;4939551;29;20520;-77
2021/10/23 12:19:22;;;;;;;388.55;37.90;;;14.50;71.00;;;;;;4937345;29;20481;-74
2021/10/23 12:22:08;;;;;;;376.02;42.10;;;14.60;70.90;;;;;;4936262;29;20027;-77
2021/10/23 12:24:44;;;;;;;560.70;65.47;;;14.60;69.20;;;;;;4937782;29;20024;-77
2021/10/23 12:27:43;;;;;;;563.38;62.45;;;14.50;69.80;;;;;;4937485;29;20079;-75
2021/10/23 12:30:13;;;;;;;387.90;44.15;;;14.50;68.70;;;;;;4915124;29;20036;-76
2021/10/23 12:32:46;;;;;;;364.52;40.17;;;14.50;69.10;;;;;;4935138;29;20050;-77
2021/10/23 12:35:25;;;;;;;224.60;27.35;;;14.50;69.30;;;;;;4937503;29;20457;-78
2021/10/23 12:37:59;;;;;;;176.35;21.73;;;14.60;69.50;;;;;;4935689;29;20069;-75
2021/10/23 12:40:32;;;;;;;118.63;15.57;;;14.60;69.10;;;;;;4937118;29;20028;-76
2021/10/23 12:43:08;;;;;;;111.47;15.18;;;14.60;68.70;;;;;;4941529;29;20039;-76
2021/10/23 12:45:54;;;;;;;125.75;15.38;;;14.60;69.00;;;;;;4954995;28;20019;-76
2021/10/23 12:48:20;;;;;;;105.60;16.83;;;14.60;69.60;;;;;;4955869;28;20039;-76